<?xml version="1.0" encoding="UTF-8" standalone="no" ?>
<gpx xmlns="http://www.topografix.com/GPX/1/1" xmlns:xsi="http://www.w3.org/2001/XMLSchema-instance" xsi:schemaLocation="http://www.topografix.com/GPX/1/1 http://www.topografix.com/GPX/1/1/gpx.xsd" version="1.1" creator="VisuGPX - https://www.visugpx.com">
  <metadata>
    <name>Ronce</name>
  </metadata>
  <trk>
    <name><![CDATA[La Tremblade Wali]]></name>
    <extensions>
      <line xmlns="http://www.topografix.com/GPX/gpx_style/0/2">
        <color>0000FF</color>
        <width>4</width>
      </line>
    </extensions>
    <trkseg>
      <trkpt lat="45.79297" lon="-1.16414">
        <ele>8.7</ele>
        <time>2014-12-30T20:33:59.000Z</time>
      </trkpt>
      <trkpt lat="45.79308" lon="-1.16429">
        <ele>9.2</ele>
      </trkpt>
      <trkpt lat="45.79302" lon="-1.16437">
        <ele>9</ele>
        <time>2014-12-30T20:33:59.049Z</time>
      </trkpt>
      <trkpt lat="45.79301" lon="-1.16464">
        <ele>10.2</ele>
      </trkpt>
      <trkpt lat="45.79292" lon="-1.16496">
        <ele>10.9</ele>
      </trkpt>
      <trkpt lat="45.793" lon="-1.16523">
        <ele>11.8</ele>
      </trkpt>
      <trkpt lat="45.793" lon="-1.16566">
        <ele>11.3</ele>
      </trkpt>
      <trkpt lat="45.79302" lon="-1.1659">
        <ele>11.6</ele>
      </trkpt>
      <trkpt lat="45.79323" lon="-1.16593">
        <ele>12.3</ele>
      </trkpt>
      <trkpt lat="45.79322" lon="-1.16626">
        <ele>11.3</ele>
        <time>2014-12-30T20:33:59.134Z</time>
      </trkpt>
      <trkpt lat="45.7928" lon="-1.16671">
        <ele>8.9</ele>
        <time>2014-12-30T20:33:59.241Z</time>
      </trkpt>
      <trkpt lat="45.79281" lon="-1.16712">
        <ele>7.6</ele>
        <time>2014-12-30T20:33:59.354Z</time>
      </trkpt>
      <trkpt lat="45.79266" lon="-1.16751">
        <ele>7</ele>
        <time>2014-12-30T20:33:59.480Z</time>
      </trkpt>
      <trkpt lat="45.7924" lon="-1.16739">
        <ele>7</ele>
      </trkpt>
      <trkpt lat="45.79225" lon="-1.16745">
        <ele>9.8</ele>
        <time>2014-12-30T20:33:59.617Z</time>
      </trkpt>
      <trkpt lat="45.79191" lon="-1.16822">
        <ele>10.7</ele>
        <time>2014-12-30T20:33:59.769Z</time>
      </trkpt>
      <trkpt lat="45.7918" lon="-1.16919">
        <ele>13.8</ele>
        <time>2014-12-30T20:33:59.938Z</time>
      </trkpt>
      <trkpt lat="45.79116" lon="-1.17125">
        <ele>14.2</ele>
        <time>2014-12-30T20:34:00.145Z</time>
      </trkpt>
      <trkpt lat="45.78941" lon="-1.1758">
        <ele>20</ele>
        <time>2014-12-30T20:34:00.440Z</time>
      </trkpt>
      <trkpt lat="45.78932" lon="-1.17648">
        <ele>19</ele>
        <time>2014-12-30T20:34:00.747Z</time>
      </trkpt>
      <trkpt lat="45.78725" lon="-1.18099">
        <ele>15.2</ele>
        <time>2014-12-30T20:34:01.146Z</time>
      </trkpt>
      <trkpt lat="45.78657" lon="-1.18375">
        <ele>12.6</ele>
        <time>2014-12-30T20:34:01.594Z</time>
      </trkpt>
      <trkpt lat="45.78683" lon="-1.18587">
        <ele>12</ele>
        <time>2014-12-30T20:34:02.079Z</time>
      </trkpt>
      <trkpt lat="45.78756" lon="-1.18721">
        <ele>11.1</ele>
        <time>2014-12-30T20:34:02.593Z</time>
      </trkpt>
      <trkpt lat="45.78821" lon="-1.18786">
        <ele>13.5</ele>
        <time>2014-12-30T20:34:03.126Z</time>
      </trkpt>
      <trkpt lat="45.78835" lon="-1.18836">
        <ele>15.6</ele>
        <time>2014-12-30T20:34:03.668Z</time>
      </trkpt>
      <trkpt lat="45.78862" lon="-1.1899">
        <ele>13.6</ele>
        <time>2014-12-30T20:34:04.237Z</time>
      </trkpt>
      <trkpt lat="45.78867" lon="-1.1929">
        <ele>12.7</ele>
        <time>2014-12-30T20:34:04.857Z</time>
      </trkpt>
      <trkpt lat="45.78898" lon="-1.19282">
        <ele>12.4</ele>
        <time>2014-12-30T20:34:05.484Z</time>
      </trkpt>
      <trkpt lat="45.78934" lon="-1.19236">
        <ele>8.5</ele>
        <time>2014-12-30T20:34:06.123Z</time>
      </trkpt>
      <trkpt lat="45.78943" lon="-1.19248">
        <ele>6.7</ele>
        <time>2014-12-30T20:34:06.765Z</time>
      </trkpt>
      <trkpt lat="45.7894" lon="-1.19615">
        <ele>7.3</ele>
        <time>2014-12-30T20:34:07.469Z</time>
      </trkpt>
      <trkpt lat="45.78964" lon="-1.19862">
        <ele>8.8</ele>
        <time>2014-12-30T20:34:08.216Z</time>
      </trkpt>
      <trkpt lat="45.79016" lon="-1.20047">
        <ele>9.4</ele>
        <time>2014-12-30T20:34:08.996Z</time>
      </trkpt>
      <trkpt lat="45.79065" lon="-1.20034">
        <ele>6</ele>
        <time>2014-12-30T20:34:09.788Z</time>
      </trkpt>
      <trkpt lat="45.79109" lon="-1.20086">
        <ele>7.1</ele>
        <time>2014-12-30T20:34:10.594Z</time>
      </trkpt>
      <trkpt lat="45.79141" lon="-1.20183">
        <ele>7.4</ele>
        <time>2014-12-30T20:34:11.418Z</time>
      </trkpt>
      <trkpt lat="45.79127" lon="-1.20245">
        <ele>9.1</ele>
        <time>2014-12-30T20:34:12.253Z</time>
      </trkpt>
      <trkpt lat="45.79188" lon="-1.20326">
        <ele>9.5</ele>
        <time>2014-12-30T20:34:13.109Z</time>
      </trkpt>
      <trkpt lat="45.79184" lon="-1.20476">
        <ele>10</ele>
        <time>2014-12-30T20:34:13.990Z</time>
      </trkpt>
      <trkpt lat="45.79214" lon="-1.20496">
        <ele>10.2</ele>
        <time>2014-12-30T20:34:14.879Z</time>
      </trkpt>
      <trkpt lat="45.79231" lon="-1.20559">
        <ele>11</ele>
        <time>2014-12-30T20:34:15.780Z</time>
      </trkpt>
      <trkpt lat="45.79186" lon="-1.20646">
        <ele>11</ele>
        <time>2014-12-30T20:34:16.699Z</time>
      </trkpt>
      <trkpt lat="45.79187" lon="-1.20712">
        <ele>10.6</ele>
        <time>2014-12-30T20:34:17.629Z</time>
      </trkpt>
      <trkpt lat="45.79167" lon="-1.20762">
        <ele>10.8</ele>
        <time>2014-12-30T20:34:18.569Z</time>
      </trkpt>
      <trkpt lat="45.79164" lon="-1.20914">
        <ele>11</ele>
        <time>2014-12-30T20:34:19.535Z</time>
      </trkpt>
      <trkpt lat="45.79179" lon="-1.20929">
        <ele>11.4</ele>
        <time>2014-12-30T20:34:20.505Z</time>
      </trkpt>
      <trkpt lat="45.79099" lon="-1.21085">
        <ele>8.1</ele>
        <time>2014-12-30T20:34:21.508Z</time>
      </trkpt>
      <trkpt lat="45.79096" lon="-1.21122">
        <ele>6.8</ele>
        <time>2014-12-30T20:34:22.517Z</time>
      </trkpt>
      <trkpt lat="45.79054" lon="-1.21142">
        <ele>9.3</ele>
        <time>2014-12-30T20:34:23.537Z</time>
      </trkpt>
      <trkpt lat="45.78994" lon="-1.21513">
        <ele>7</ele>
        <time>2014-12-30T20:34:24.622Z</time>
      </trkpt>
      <trkpt lat="45.79004" lon="-1.21556">
        <ele>7</ele>
        <time>2014-12-30T20:34:25.714Z</time>
      </trkpt>
      <trkpt lat="45.78935" lon="-1.21682">
        <ele>7.8</ele>
        <time>2014-12-30T20:34:26.834Z</time>
      </trkpt>
      <trkpt lat="45.78927" lon="-1.21758">
        <ele>10.6</ele>
        <time>2014-12-30T20:34:27.967Z</time>
      </trkpt>
      <trkpt lat="45.78845" lon="-1.2184">
        <ele>10</ele>
        <time>2014-12-30T20:34:29.124Z</time>
      </trkpt>
      <trkpt lat="45.78699" lon="-1.22156">
        <ele>8.1</ele>
        <time>2014-12-30T20:34:30.345Z</time>
      </trkpt>
      <trkpt lat="45.78591" lon="-1.22294">
        <ele>9</ele>
        <time>2014-12-30T20:34:31.601Z</time>
      </trkpt>
      <trkpt lat="45.78436" lon="-1.22585">
        <ele>10</ele>
        <time>2014-12-30T20:34:32.919Z</time>
      </trkpt>
      <trkpt lat="45.78284" lon="-1.2275">
        <ele>10.7</ele>
        <time>2014-12-30T20:34:34.284Z</time>
      </trkpt>
      <trkpt lat="45.7823" lon="-1.2276">
        <ele>10</ele>
        <time>2014-12-30T20:34:35.662Z</time>
      </trkpt>
      <trkpt lat="45.782" lon="-1.22794">
        <ele>8.1</ele>
        <time>2014-12-30T20:34:37.049Z</time>
      </trkpt>
      <trkpt lat="45.78169" lon="-1.2279">
        <ele>7.3</ele>
        <time>2014-12-30T20:34:38.444Z</time>
      </trkpt>
      <trkpt lat="45.78109" lon="-1.22818">
        <ele>8</ele>
        <time>2014-12-30T20:34:39.854Z</time>
      </trkpt>
      <trkpt lat="45.78092" lon="-1.22819">
        <ele>9</ele>
        <time>2014-12-30T20:34:41.268Z</time>
      </trkpt>
      <trkpt lat="45.78059" lon="-1.2279">
        <ele>9</ele>
        <time>2014-12-30T20:34:42.691Z</time>
      </trkpt>
      <trkpt lat="45.78008" lon="-1.22802">
        <ele>8</ele>
        <time>2014-12-30T20:34:44.127Z</time>
      </trkpt>
      <trkpt lat="45.77946" lon="-1.22789">
        <ele>7</ele>
        <time>2014-12-30T20:34:45.578Z</time>
      </trkpt>
      <trkpt lat="45.7792" lon="-1.22811">
        <ele>7.3</ele>
        <time>2014-12-30T20:34:47.037Z</time>
      </trkpt>
      <trkpt lat="45.77884" lon="-1.228">
        <ele>8.1</ele>
        <time>2014-12-30T20:34:48.505Z</time>
      </trkpt>
      <trkpt lat="45.77862" lon="-1.2281">
        <ele>8.4</ele>
        <time>2014-12-30T20:34:49.978Z</time>
      </trkpt>
      <trkpt lat="45.77831" lon="-1.22764">
        <ele>9.6</ele>
        <time>2014-12-30T20:34:51.462Z</time>
      </trkpt>
      <trkpt lat="45.77802" lon="-1.22768">
        <ele>9.6</ele>
        <time>2014-12-30T20:34:52.953Z</time>
      </trkpt>
      <trkpt lat="45.77785" lon="-1.22727">
        <ele>10</ele>
        <time>2014-12-30T20:34:54.452Z</time>
      </trkpt>
      <trkpt lat="45.77792" lon="-1.22523">
        <ele>8.3</ele>
        <time>2014-12-30T20:34:55.986Z</time>
      </trkpt>
      <trkpt lat="45.77754" lon="-1.22508">
        <ele>4.5</ele>
        <time>2014-12-30T20:34:57.530Z</time>
      </trkpt>
      <trkpt lat="45.77739" lon="-1.22494">
        <ele>4.1</ele>
      </trkpt>
      <trkpt lat="45.77716" lon="-1.22504">
        <ele>9</ele>
        <time>2014-12-30T20:34:59.083Z</time>
      </trkpt>
      <trkpt lat="45.77692" lon="-1.2267">
        <ele>8.7</ele>
        <time>2014-12-30T20:35:00.665Z</time>
      </trkpt>
      <trkpt lat="45.77704" lon="-1.22813">
        <ele>7.1</ele>
        <time>2014-12-30T20:35:02.271Z</time>
      </trkpt>
      <trkpt lat="45.77667" lon="-1.23047">
        <ele>8</ele>
        <time>2014-12-30T20:35:03.918Z</time>
      </trkpt>
      <trkpt lat="45.7763" lon="-1.23164">
        <ele>7.6</ele>
        <time>2014-12-30T20:35:05.587Z</time>
      </trkpt>
      <trkpt lat="45.77551" lon="-1.23316">
        <ele>6.6</ele>
        <time>2014-12-30T20:35:07.288Z</time>
      </trkpt>
      <trkpt lat="45.77505" lon="-1.23527">
        <ele>7</ele>
        <time>2014-12-30T20:35:09.026Z</time>
      </trkpt>
      <trkpt lat="45.77426" lon="-1.23716">
        <ele>9.9</ele>
        <time>2014-12-30T20:35:10.802Z</time>
      </trkpt>
      <trkpt lat="45.7741" lon="-1.23734">
        <ele>7.1</ele>
        <time>2014-12-30T20:35:12.596Z</time>
      </trkpt>
      <trkpt lat="45.77199" lon="-1.23687">
        <ele>10</ele>
        <time>2014-12-30T20:35:14.428Z</time>
      </trkpt>
      <trkpt lat="45.77006" lon="-1.23679">
        <ele>10.7</ele>
        <time>2014-12-30T20:35:16.306Z</time>
      </trkpt>
      <trkpt lat="45.76936" lon="-1.23656">
        <ele>9.8</ele>
        <time>2014-12-30T20:35:18.202Z</time>
      </trkpt>
      <trkpt lat="45.76779" lon="-1.23642">
        <ele>10.8</ele>
        <time>2014-12-30T20:35:20.136Z</time>
      </trkpt>
      <trkpt lat="45.76712" lon="-1.23606">
        <ele>10.2</ele>
        <time>2014-12-30T20:35:22.087Z</time>
      </trkpt>
      <trkpt lat="45.76521" lon="-1.23659">
        <ele>11.5</ele>
        <time>2014-12-30T20:35:24.085Z</time>
      </trkpt>
      <trkpt lat="45.76482" lon="-1.23647">
        <ele>7.7</ele>
        <time>2014-12-30T20:35:26.093Z</time>
      </trkpt>
      <trkpt lat="45.76429" lon="-1.23678">
        <ele>7.7</ele>
        <time>2014-12-30T20:35:28.115Z</time>
      </trkpt>
      <trkpt lat="45.76338" lon="-1.23696">
        <ele>9.3</ele>
        <time>2014-12-30T20:35:30.159Z</time>
      </trkpt>
      <trkpt lat="45.76304" lon="-1.23622">
        <ele>7.6</ele>
        <time>2014-12-30T20:35:32.218Z</time>
      </trkpt>
      <trkpt lat="45.76238" lon="-1.23243">
        <ele>9.4</ele>
        <time>2014-12-30T20:35:34.344Z</time>
      </trkpt>
      <trkpt lat="45.76185" lon="-1.23069">
        <ele>13.8</ele>
        <time>2014-12-30T20:35:36.502Z</time>
      </trkpt>
      <trkpt lat="45.762" lon="-1.22962">
        <ele>12.9</ele>
        <time>2014-12-30T20:35:38.678Z</time>
      </trkpt>
      <trkpt lat="45.76154" lon="-1.22961">
        <ele>12.1</ele>
        <time>2014-12-30T20:35:40.866Z</time>
      </trkpt>
      <trkpt lat="45.76147" lon="-1.22942">
        <ele>10.4</ele>
        <time>2014-12-30T20:35:43.057Z</time>
      </trkpt>
      <trkpt lat="45.76145" lon="-1.22955">
        <ele>11.2</ele>
        <time>2014-12-30T20:35:45.251Z</time>
      </trkpt>
      <trkpt lat="45.76105" lon="-1.22952">
        <ele>8.1</ele>
        <time>2014-12-30T20:35:47.454Z</time>
      </trkpt>
      <trkpt lat="45.76062" lon="-1.22913">
        <ele>6.1</ele>
        <time>2014-12-30T20:35:49.670Z</time>
      </trkpt>
      <trkpt lat="45.75968" lon="-1.22895">
        <ele>8.9</ele>
        <time>2014-12-30T20:35:51.909Z</time>
      </trkpt>
      <trkpt lat="45.75957" lon="-1.22713">
        <ele>9.6</ele>
        <time>2014-12-30T20:35:54.179Z</time>
      </trkpt>
      <trkpt lat="45.75927" lon="-1.22665">
        <ele>11</ele>
        <time>2014-12-30T20:35:56.459Z</time>
      </trkpt>
      <trkpt lat="45.75904" lon="-1.22655">
        <ele>11.6</ele>
        <time>2014-12-30T20:35:58.745Z</time>
      </trkpt>
      <trkpt lat="45.75887" lon="-1.22669">
        <ele>12</ele>
        <time>2014-12-30T20:36:01.036Z</time>
      </trkpt>
      <trkpt lat="45.75885" lon="-1.226">
        <ele>11.4</ele>
        <time>2014-12-30T20:36:03.339Z</time>
      </trkpt>
      <trkpt lat="45.75916" lon="-1.22546">
        <ele>10.4</ele>
        <time>2014-12-30T20:36:05.654Z</time>
      </trkpt>
      <trkpt lat="45.75915" lon="-1.22518">
        <ele>11</ele>
        <time>2014-12-30T20:36:07.973Z</time>
      </trkpt>
      <trkpt lat="45.75852" lon="-1.22465">
        <ele>13</ele>
        <time>2014-12-30T20:36:10.310Z</time>
      </trkpt>
      <trkpt lat="45.7583" lon="-1.22355">
        <ele>12.6</ele>
        <time>2014-12-30T20:36:12.667Z</time>
      </trkpt>
      <trkpt lat="45.75795" lon="-1.22279">
        <ele>13.6</ele>
        <time>2014-12-30T20:36:15.039Z</time>
      </trkpt>
      <trkpt lat="45.75753" lon="-1.22297">
        <ele>17.5</ele>
        <time>2014-12-30T20:36:17.422Z</time>
      </trkpt>
      <trkpt lat="45.75696" lon="-1.22296">
        <ele>21.8</ele>
        <time>2014-12-30T20:36:19.819Z</time>
      </trkpt>
      <trkpt lat="45.75701" lon="-1.22161">
        <ele>27.9</ele>
        <time>2014-12-30T20:36:22.239Z</time>
      </trkpt>
      <trkpt lat="45.75661" lon="-1.22088">
        <ele>25.2</ele>
        <time>2014-12-30T20:36:24.674Z</time>
      </trkpt>
      <trkpt lat="45.75631" lon="-1.22078">
        <ele>21.3</ele>
        <time>2014-12-30T20:36:27.117Z</time>
      </trkpt>
      <trkpt lat="45.75643" lon="-1.22032">
        <ele>24.4</ele>
        <time>2014-12-30T20:36:29.568Z</time>
      </trkpt>
      <trkpt lat="45.75676" lon="-1.22011">
        <ele>27.2</ele>
        <time>2014-12-30T20:36:32.028Z</time>
      </trkpt>
      <trkpt lat="45.75701" lon="-1.22008">
        <ele>27.5</ele>
        <time>2014-12-30T20:36:34.494Z</time>
      </trkpt>
      <trkpt lat="45.75802" lon="-1.22053">
        <ele>16.7</ele>
        <time>2014-12-30T20:36:36.985Z</time>
      </trkpt>
      <trkpt lat="45.75842" lon="-1.22006">
        <ele>14.1</ele>
        <time>2014-12-30T20:36:39.489Z</time>
      </trkpt>
      <trkpt lat="45.7589" lon="-1.21979">
        <ele>16.6</ele>
        <time>2014-12-30T20:36:42.006Z</time>
      </trkpt>
      <trkpt lat="45.75929" lon="-1.21998">
        <ele>19.3</ele>
        <time>2014-12-30T20:36:44.533Z</time>
      </trkpt>
      <trkpt lat="45.75954" lon="-1.22049">
        <ele>20.3</ele>
        <time>2014-12-30T20:36:47.070Z</time>
      </trkpt>
      <trkpt lat="45.75996" lon="-1.21945">
        <ele>28.9</ele>
        <time>2014-12-30T20:36:49.628Z</time>
      </trkpt>
      <trkpt lat="45.76106" lon="-1.21889">
        <ele>14.1</ele>
        <time>2014-12-30T20:36:52.214Z</time>
      </trkpt>
      <trkpt lat="45.76133" lon="-1.21698">
        <ele>18.6</ele>
        <time>2014-12-30T20:36:54.833Z</time>
      </trkpt>
      <trkpt lat="45.76168" lon="-1.21725">
        <ele>17.2</ele>
        <time>2014-12-30T20:36:57.462Z</time>
      </trkpt>
      <trkpt lat="45.76274" lon="-1.21738">
        <ele>16.1</ele>
        <time>2014-12-30T20:37:00.117Z</time>
      </trkpt>
      <trkpt lat="45.76331" lon="-1.21765">
        <ele>13.9</ele>
        <time>2014-12-30T20:37:02.786Z</time>
      </trkpt>
      <trkpt lat="45.76469" lon="-1.21727">
        <ele>12.2</ele>
        <time>2014-12-30T20:37:05.489Z</time>
      </trkpt>
      <trkpt lat="45.76577" lon="-1.21674">
        <ele>11.5</ele>
        <time>2014-12-30T20:37:08.220Z</time>
      </trkpt>
      <trkpt lat="45.76634" lon="-1.21683">
        <ele>13</ele>
        <time>2014-12-30T20:37:10.965Z</time>
      </trkpt>
      <trkpt lat="45.76783" lon="-1.21778">
        <ele>23.7</ele>
        <time>2014-12-30T20:37:13.750Z</time>
      </trkpt>
      <trkpt lat="45.7684" lon="-1.21791">
        <ele>21.5</ele>
        <time>2014-12-30T20:37:16.549Z</time>
      </trkpt>
      <trkpt lat="45.76905" lon="-1.21772">
        <ele>24.9</ele>
        <time>2014-12-30T20:37:19.364Z</time>
      </trkpt>
      <trkpt lat="45.76958" lon="-1.21726">
        <ele>27.8</ele>
        <time>2014-12-30T20:37:22.194Z</time>
      </trkpt>
      <trkpt lat="45.76991" lon="-1.21728">
        <ele>29</ele>
        <time>2014-12-30T20:37:25.032Z</time>
      </trkpt>
      <trkpt lat="45.77041" lon="-1.21767">
        <ele>31</ele>
        <time>2014-12-30T20:37:27.884Z</time>
      </trkpt>
      <trkpt lat="45.7718" lon="-1.21775">
        <ele>27.5</ele>
        <time>2014-12-30T20:37:30.769Z</time>
      </trkpt>
      <trkpt lat="45.77244" lon="-1.21805">
        <ele>27</ele>
        <time>2014-12-30T20:37:33.671Z</time>
      </trkpt>
      <trkpt lat="45.77319" lon="-1.21762">
        <ele>33</ele>
        <time>2014-12-30T20:37:36.592Z</time>
      </trkpt>
      <trkpt lat="45.77327" lon="-1.21814">
        <ele>28.9</ele>
        <time>2014-12-30T20:37:39.522Z</time>
      </trkpt>
      <trkpt lat="45.77383" lon="-1.21879">
        <ele>30.1</ele>
        <time>2014-12-30T20:37:42.470Z</time>
      </trkpt>
      <trkpt lat="45.77407" lon="-1.22908">
        <ele>8</ele>
        <time>2014-12-30T20:37:45.592Z</time>
      </trkpt>
      <trkpt lat="45.77762" lon="-1.22853">
        <ele>8</ele>
        <time>2014-12-30T20:37:48.801Z</time>
      </trkpt>
      <trkpt lat="45.77757" lon="-1.22796">
        <ele>6</ele>
        <time>2014-12-30T20:37:52.024Z</time>
      </trkpt>
      <trkpt lat="45.77751" lon="-1.22687">
        <ele>6.8</ele>
        <time>2014-12-30T20:37:55.289Z</time>
      </trkpt>
      <trkpt lat="45.77701" lon="-1.22334">
        <ele>9</ele>
        <time>2014-12-30T20:37:58.616Z</time>
      </trkpt>
      <trkpt lat="45.77742" lon="-1.2206">
        <ele>12.4</ele>
        <time>2014-12-30T20:38:01.990Z</time>
      </trkpt>
      <trkpt lat="45.77732" lon="-1.21817">
        <ele>10.9</ele>
        <time>2014-12-30T20:38:05.406Z</time>
      </trkpt>
      <trkpt lat="45.77686" lon="-1.21809">
        <ele>14.7</ele>
        <time>2014-12-30T20:38:08.833Z</time>
      </trkpt>
      <trkpt lat="45.77659" lon="-1.21769">
        <ele>16.5</ele>
        <time>2014-12-30T20:38:12.269Z</time>
      </trkpt>
      <trkpt lat="45.77634" lon="-1.21684">
        <ele>10.4</ele>
        <time>2014-12-30T20:38:15.721Z</time>
      </trkpt>
      <trkpt lat="45.77628" lon="-1.21577">
        <ele>10.9</ele>
        <time>2014-12-30T20:38:19.191Z</time>
      </trkpt>
      <trkpt lat="45.7747" lon="-1.21392">
        <ele>43</ele>
        <time>2014-12-30T20:38:22.711Z</time>
      </trkpt>
      <trkpt lat="45.77417" lon="-1.21446">
        <ele>49.2</ele>
        <time>2014-12-30T20:38:26.246Z</time>
      </trkpt>
      <trkpt lat="45.77373" lon="-1.21448">
        <ele>50</ele>
        <time>2014-12-30T20:38:29.792Z</time>
      </trkpt>
      <trkpt lat="45.77304" lon="-1.21479">
        <ele>40.4</ele>
        <time>2014-12-30T20:38:33.356Z</time>
      </trkpt>
      <trkpt lat="45.77247" lon="-1.21467">
        <ele>40.6</ele>
        <time>2014-12-30T20:38:36.933Z</time>
      </trkpt>
      <trkpt lat="45.77168" lon="-1.21497">
        <ele>41.8</ele>
        <time>2014-12-30T20:38:40.530Z</time>
      </trkpt>
      <trkpt lat="45.77103" lon="-1.21461">
        <ele>39.8</ele>
        <time>2014-12-30T20:38:44.144Z</time>
      </trkpt>
      <trkpt lat="45.76977" lon="-1.21322">
        <ele>41.1</ele>
        <time>2014-12-30T20:38:47.797Z</time>
      </trkpt>
      <trkpt lat="45.76833" lon="-1.21262">
        <ele>57.9</ele>
        <time>2014-12-30T20:38:51.486Z</time>
      </trkpt>
      <trkpt lat="45.76827" lon="-1.21278">
        <ele>56.7</ele>
        <time>2014-12-30T20:38:55.178Z</time>
      </trkpt>
      <trkpt lat="45.76819" lon="-1.21076">
        <ele>32.1</ele>
        <time>2014-12-30T20:38:58.905Z</time>
      </trkpt>
      <trkpt lat="45.76762" lon="-1.21003">
        <ele>22.7</ele>
        <time>2014-12-30T20:39:02.650Z</time>
      </trkpt>
      <trkpt lat="45.76458" lon="-1.21015">
        <ele>18.4</ele>
        <time>2014-12-30T20:39:06.469Z</time>
      </trkpt>
      <trkpt lat="45.7643" lon="-1.20362">
        <ele>17.6</ele>
        <time>2014-12-30T20:39:10.399Z</time>
      </trkpt>
      <trkpt lat="45.76436" lon="-1.20111">
        <ele>18.3</ele>
        <time>2014-12-30T20:39:14.372Z</time>
      </trkpt>
      <trkpt lat="45.76522" lon="-1.20233">
        <ele>14.3</ele>
        <time>2014-12-30T20:39:18.374Z</time>
      </trkpt>
      <trkpt lat="45.76587" lon="-1.20375">
        <ele>15.5</ele>
        <time>2014-12-30T20:39:22.405Z</time>
      </trkpt>
      <trkpt lat="45.76661" lon="-1.20736">
        <ele>24.3</ele>
        <time>2014-12-30T20:39:26.500Z</time>
      </trkpt>
      <trkpt lat="45.76665" lon="-1.20866">
        <ele>20.7</ele>
        <time>2014-12-30T20:39:30.617Z</time>
      </trkpt>
      <trkpt lat="45.76723" lon="-1.20893">
        <ele>21.6</ele>
        <time>2014-12-30T20:39:34.749Z</time>
      </trkpt>
      <trkpt lat="45.76811" lon="-1.20898">
        <ele>29.2</ele>
        <time>2014-12-30T20:39:38.902Z</time>
      </trkpt>
      <trkpt lat="45.76851" lon="-1.20946">
        <ele>30.6</ele>
        <time>2014-12-30T20:39:43.068Z</time>
      </trkpt>
      <trkpt lat="45.76872" lon="-1.20938">
        <ele>29.5</ele>
        <time>2014-12-30T20:39:47.239Z</time>
      </trkpt>
      <trkpt lat="45.76902" lon="-1.20961">
        <ele>25.9</ele>
        <time>2014-12-30T20:39:51.418Z</time>
      </trkpt>
      <trkpt lat="45.76921" lon="-1.21031">
        <ele>22.5</ele>
        <time>2014-12-30T20:39:55.610Z</time>
      </trkpt>
      <trkpt lat="45.76921" lon="-1.21126">
        <ele>22.7</ele>
        <time>2014-12-30T20:39:59.818Z</time>
      </trkpt>
      <trkpt lat="45.7686" lon="-1.21117">
        <ele>35</ele>
        <time>2014-12-30T20:40:04.041Z</time>
      </trkpt>
      <trkpt lat="45.76828" lon="-1.21093">
        <ele>34.8</ele>
        <time>2014-12-30T20:40:08.273Z</time>
      </trkpt>
      <trkpt lat="45.76902" lon="-1.21126">
        <ele>26.8</ele>
        <time>2014-12-30T20:40:12.524Z</time>
      </trkpt>
      <trkpt lat="45.76936" lon="-1.21194">
        <ele>30.9</ele>
        <time>2014-12-30T20:40:16.789Z</time>
      </trkpt>
      <trkpt lat="45.76968" lon="-1.21217">
        <ele>26.7</ele>
        <time>2014-12-30T20:40:21.063Z</time>
      </trkpt>
      <trkpt lat="45.77059" lon="-1.2125">
        <ele>19.7</ele>
        <time>2014-12-30T20:40:25.359Z</time>
      </trkpt>
      <trkpt lat="45.77103" lon="-1.21343">
        <ele>26.7</ele>
        <time>2014-12-30T20:40:29.675Z</time>
      </trkpt>
      <trkpt lat="45.77133" lon="-1.21376">
        <ele>28.9</ele>
        <time>2014-12-30T20:40:34.000Z</time>
      </trkpt>
      <trkpt lat="45.77163" lon="-1.21385">
        <ele>26.8</ele>
        <time>2014-12-30T20:40:38.332Z</time>
      </trkpt>
      <trkpt lat="45.77182" lon="-1.21284">
        <ele>19.5</ele>
        <time>2014-12-30T20:40:42.682Z</time>
      </trkpt>
      <trkpt lat="45.77175" lon="-1.2105">
        <ele>15.8</ele>
        <time>2014-12-30T20:40:47.072Z</time>
      </trkpt>
      <trkpt lat="45.7711" lon="-1.20931">
        <ele>18.9</ele>
        <time>2014-12-30T20:40:51.487Z</time>
      </trkpt>
      <trkpt lat="45.77033" lon="-1.20922">
        <ele>20.6</ele>
        <time>2014-12-30T20:40:55.921Z</time>
      </trkpt>
      <trkpt lat="45.76921" lon="-1.20854">
        <ele>28.1</ele>
        <time>2014-12-30T20:41:00.384Z</time>
      </trkpt>
      <trkpt lat="45.76855" lon="-1.20472">
        <ele>42.5</ele>
        <time>2014-12-30T20:41:04.914Z</time>
      </trkpt>
      <trkpt lat="45.76929" lon="-1.20573">
        <ele>36.8</ele>
        <time>2014-12-30T20:41:09.469Z</time>
      </trkpt>
      <trkpt lat="45.77122" lon="-1.20554">
        <ele>29.9</ele>
        <time>2014-12-30T20:41:14.071Z</time>
      </trkpt>
      <trkpt lat="45.77196" lon="-1.20608">
        <ele>28.2</ele>
        <time>2014-12-30T20:41:18.693Z</time>
      </trkpt>
      <trkpt lat="45.77211" lon="-1.20642">
        <ele>29.1</ele>
        <time>2014-12-30T20:41:23.322Z</time>
      </trkpt>
      <trkpt lat="45.77242" lon="-1.2059">
        <ele>27.6</ele>
        <time>2014-12-30T20:41:27.962Z</time>
      </trkpt>
      <trkpt lat="45.77319" lon="-1.20623">
        <ele>28.7</ele>
        <time>2014-12-30T20:41:32.622Z</time>
      </trkpt>
      <trkpt lat="45.7732" lon="-1.20642">
        <ele>30.1</ele>
        <time>2014-12-30T20:41:37.285Z</time>
      </trkpt>
      <trkpt lat="45.77346" lon="-1.20642">
        <ele>31.4</ele>
        <time>2014-12-30T20:41:41.954Z</time>
      </trkpt>
      <trkpt lat="45.77376" lon="-1.2068">
        <ele>32.7</ele>
        <time>2014-12-30T20:41:46.633Z</time>
      </trkpt>
      <trkpt lat="45.7741" lon="-1.20806">
        <ele>27.9</ele>
        <time>2014-12-30T20:41:51.335Z</time>
      </trkpt>
      <trkpt lat="45.77385" lon="-1.20906">
        <ele>29.7</ele>
        <time>2014-12-30T20:41:56.055Z</time>
      </trkpt>
      <trkpt lat="45.77347" lon="-1.20986">
        <ele>31.8</ele>
        <time>2014-12-30T20:42:00.791Z</time>
      </trkpt>
      <trkpt lat="45.77338" lon="-1.21074">
        <ele>29.7</ele>
        <time>2014-12-30T20:42:05.542Z</time>
      </trkpt>
      <trkpt lat="45.77313" lon="-1.2114">
        <ele>29.6</ele>
        <time>2014-12-30T20:42:10.306Z</time>
      </trkpt>
      <trkpt lat="45.77316" lon="-1.21185">
        <ele>33.3</ele>
        <time>2014-12-30T20:42:15.078Z</time>
      </trkpt>
      <trkpt lat="45.77351" lon="-1.21238">
        <ele>39.3</ele>
        <time>2014-12-30T20:42:19.862Z</time>
      </trkpt>
      <trkpt lat="45.77363" lon="-1.2144">
        <ele>49.1</ele>
        <time>2014-12-30T20:42:24.681Z</time>
      </trkpt>
      <trkpt lat="45.77402" lon="-1.21356">
        <ele>50.8</ele>
        <time>2014-12-30T20:42:29.517Z</time>
      </trkpt>
      <trkpt lat="45.7759" lon="-1.21519">
        <ele>17.2</ele>
        <time>2014-12-30T20:42:34.406Z</time>
      </trkpt>
      <trkpt lat="45.77627" lon="-1.2158">
        <ele>10.8</ele>
        <time>2014-12-30T20:42:39.309Z</time>
      </trkpt>
      <trkpt lat="45.77636" lon="-1.21718">
        <ele>13</ele>
        <time>2014-12-30T20:42:44.235Z</time>
      </trkpt>
      <trkpt lat="45.77679" lon="-1.21817">
        <ele>15.5</ele>
        <time>2014-12-30T20:42:49.181Z</time>
      </trkpt>
      <trkpt lat="45.77872" lon="-1.21791">
        <ele>12</ele>
        <time>2014-12-30T20:42:54.174Z</time>
      </trkpt>
      <trkpt lat="45.77968" lon="-1.21903">
        <ele>12.4</ele>
        <time>2014-12-30T20:42:59.197Z</time>
      </trkpt>
      <trkpt lat="45.77981" lon="-1.21864">
        <ele>12</ele>
        <time>2014-12-30T20:43:04.227Z</time>
      </trkpt>
      <trkpt lat="45.78031" lon="-1.21881">
        <ele>12</ele>
        <time>2014-12-30T20:43:09.270Z</time>
      </trkpt>
      <trkpt lat="45.78075" lon="-1.21833">
        <ele>10</ele>
        <time>2014-12-30T20:43:14.326Z</time>
      </trkpt>
      <trkpt lat="45.78116" lon="-1.21852">
        <ele>10</ele>
        <time>2014-12-30T20:43:19.393Z</time>
      </trkpt>
      <trkpt lat="45.78157" lon="-1.21819">
        <ele>9.4</ele>
        <time>2014-12-30T20:43:24.471Z</time>
      </trkpt>
      <trkpt lat="45.78187" lon="-1.21858">
        <ele>9.7</ele>
        <time>2014-12-30T20:43:29.559Z</time>
      </trkpt>
      <trkpt lat="45.78226" lon="-1.21801">
        <ele>7.1</ele>
        <time>2014-12-30T20:43:34.660Z</time>
      </trkpt>
      <trkpt lat="45.7824" lon="-1.21804">
        <ele>7.6</ele>
        <time>2014-12-30T20:43:39.765Z</time>
      </trkpt>
      <trkpt lat="45.78313" lon="-1.21888">
        <ele>10</ele>
        <time>2014-12-30T20:43:44.893Z</time>
      </trkpt>
      <trkpt lat="45.78325" lon="-1.21965">
        <ele>10</ele>
        <time>2014-12-30T20:43:50.034Z</time>
      </trkpt>
      <trkpt lat="45.78307" lon="-1.21993">
        <ele>9.2</ele>
        <time>2014-12-30T20:43:55.181Z</time>
      </trkpt>
      <trkpt lat="45.78263" lon="-1.21931">
        <ele>9</ele>
        <time>2014-12-30T20:44:00.343Z</time>
      </trkpt>
      <trkpt lat="45.78236" lon="-1.21926">
        <ele>8.6</ele>
        <time>2014-12-30T20:44:05.512Z</time>
      </trkpt>
      <trkpt lat="45.78188" lon="-1.21883">
        <ele>10.5</ele>
        <time>2014-12-30T20:44:10.695Z</time>
      </trkpt>
      <trkpt lat="45.78184" lon="-1.21934">
        <ele>10.7</ele>
        <time>2014-12-30T20:44:15.886Z</time>
      </trkpt>
      <trkpt lat="45.78208" lon="-1.21965">
        <ele>10.8</ele>
        <time>2014-12-30T20:44:21.085Z</time>
      </trkpt>
      <trkpt lat="45.78165" lon="-1.22024">
        <ele>14.1</ele>
        <time>2014-12-30T20:44:26.299Z</time>
      </trkpt>
      <trkpt lat="45.78186" lon="-1.2213">
        <ele>14.4</ele>
        <time>2014-12-30T20:44:31.531Z</time>
      </trkpt>
      <trkpt lat="45.78133" lon="-1.22132">
        <ele>12.5</ele>
        <time>2014-12-30T20:44:36.776Z</time>
      </trkpt>
      <trkpt lat="45.78137" lon="-1.22167">
        <ele>11.7</ele>
        <time>2014-12-30T20:44:42.027Z</time>
      </trkpt>
      <trkpt lat="45.78109" lon="-1.22188">
        <ele>11</ele>
        <time>2014-12-30T20:44:47.286Z</time>
      </trkpt>
      <trkpt lat="45.78102" lon="-1.22262">
        <ele>11.6</ele>
        <time>2014-12-30T20:44:52.558Z</time>
      </trkpt>
      <trkpt lat="45.78054" lon="-1.22271">
        <ele>12.3</ele>
        <time>2014-12-30T20:44:57.841Z</time>
      </trkpt>
      <trkpt lat="45.78032" lon="-1.22344">
        <ele>12.1</ele>
        <time>2014-12-30T20:45:03.138Z</time>
      </trkpt>
      <trkpt lat="45.77996" lon="-1.22321">
        <ele>12.4</ele>
        <time>2014-12-30T20:45:08.444Z</time>
      </trkpt>
      <trkpt lat="45.77937" lon="-1.22406">
        <ele>9.1</ele>
        <time>2014-12-30T20:45:13.771Z</time>
      </trkpt>
      <trkpt lat="45.77891" lon="-1.22417">
        <ele>7.9</ele>
        <time>2014-12-30T20:45:19.109Z</time>
      </trkpt>
      <trkpt lat="45.7788" lon="-1.22462">
        <ele>7.6</ele>
        <time>2014-12-30T20:45:24.455Z</time>
      </trkpt>
      <trkpt lat="45.77823" lon="-1.22438">
        <ele>9.3</ele>
        <time>2014-12-30T20:45:29.816Z</time>
      </trkpt>
      <trkpt lat="45.77823" lon="-1.22387">
        <ele>9</ele>
        <time>2014-12-30T20:45:35.185Z</time>
      </trkpt>
      <trkpt lat="45.7777" lon="-1.2235">
        <ele>8.4</ele>
        <time>2014-12-30T20:45:40.569Z</time>
      </trkpt>
      <trkpt lat="45.77807" lon="-1.22506">
        <ele>8.8</ele>
        <time>2014-12-30T20:45:45.981Z</time>
      </trkpt>
      <trkpt lat="45.77775" lon="-1.22511">
        <ele>7.7</ele>
        <time>2014-12-30T20:45:51.400Z</time>
      </trkpt>
      <trkpt lat="45.77737" lon="-1.22487">
        <ele>7.5</ele>
        <time>2014-12-30T20:45:56.830Z</time>
      </trkpt>
      <trkpt lat="45.77712" lon="-1.22502">
        <ele>9.3</ele>
        <time>2014-12-30T20:46:02.266Z</time>
      </trkpt>
      <trkpt lat="45.77685" lon="-1.22658">
        <ele>9.2</ele>
        <time>2014-12-30T20:46:07.729Z</time>
      </trkpt>
      <trkpt lat="45.77698" lon="-1.22791">
        <ele>7.3</ele>
        <time>2014-12-30T20:46:13.215Z</time>
      </trkpt>
      <trkpt lat="45.7766" lon="-1.22961">
        <ele>7.5</ele>
        <time>2014-12-30T20:46:18.732Z</time>
      </trkpt>
      <trkpt lat="45.77649" lon="-1.23092">
        <ele>8</ele>
        <time>2014-12-30T20:46:24.271Z</time>
      </trkpt>
      <trkpt lat="45.77548" lon="-1.23297">
        <ele>6.5</ele>
        <time>2014-12-30T20:46:29.853Z</time>
      </trkpt>
      <trkpt lat="45.77495" lon="-1.23527">
        <ele>7</ele>
        <time>2014-12-30T20:46:35.476Z</time>
      </trkpt>
      <trkpt lat="45.77426" lon="-1.2371">
        <ele>4.6</ele>
        <time>2014-12-30T20:46:41.134Z</time>
      </trkpt>
      <trkpt lat="45.77347" lon="-1.23728">
        <ele>9</ele>
        <time>2014-12-30T20:46:46.811Z</time>
      </trkpt>
      <trkpt lat="45.77332" lon="-1.23717">
        <ele>5.6</ele>
        <time>2014-12-30T20:47:38.950Z</time>
      </trkpt>
      <trkpt lat="45.7728" lon="-1.23708">
        <ele>5</ele>
        <time>2014-12-30T20:48:20.845Z</time>
      </trkpt>
      <trkpt lat="45.77043" lon="-1.23664">
        <ele>4.9</ele>
        <time>2014-12-30T20:48:33.071Z</time>
      </trkpt>
      <trkpt lat="45.76977" lon="-1.23657">
        <ele>4.6</ele>
        <time>2014-12-30T20:48:39.224Z</time>
      </trkpt>
      <trkpt lat="45.76768" lon="-1.23634">
        <ele>10.7</ele>
        <time>2014-12-30T20:48:45.424Z</time>
      </trkpt>
      <trkpt lat="45.76699" lon="-1.23595">
        <ele>10.1</ele>
        <time>2014-12-30T20:48:51.642Z</time>
      </trkpt>
      <trkpt lat="45.76494" lon="-1.23661">
        <ele>9.7</ele>
        <time>2014-12-30T20:48:57.911Z</time>
      </trkpt>
      <trkpt lat="45.76473" lon="-1.23643">
        <ele>7.2</ele>
        <time>2014-12-30T20:49:04.186Z</time>
      </trkpt>
      <trkpt lat="45.76362" lon="-1.23686">
        <ele>8.2</ele>
        <time>2014-12-30T20:49:10.489Z</time>
      </trkpt>
      <trkpt lat="45.76328" lon="-1.23677">
        <ele>8.3</ele>
        <time>2014-12-30T20:49:16.801Z</time>
      </trkpt>
      <trkpt lat="45.76295" lon="-1.23615">
        <ele>8.3</ele>
        <time>2014-12-30T20:49:23.126Z</time>
      </trkpt>
      <trkpt lat="45.7624" lon="-1.23268">
        <ele>9.2</ele>
        <time>2014-12-30T20:49:29.511Z</time>
      </trkpt>
      <trkpt lat="45.76183" lon="-1.23068">
        <ele>14</ele>
        <time>2014-12-30T20:49:35.933Z</time>
      </trkpt>
      <trkpt lat="45.762" lon="-1.22964">
        <ele>13</ele>
        <time>2014-12-30T20:49:42.373Z</time>
      </trkpt>
      <trkpt lat="45.76096" lon="-1.22949">
        <ele>7.6</ele>
        <time>2014-12-30T20:49:48.838Z</time>
      </trkpt>
      <trkpt lat="45.7607" lon="-1.22909">
        <ele>6</ele>
        <time>2014-12-30T20:49:55.312Z</time>
      </trkpt>
      <trkpt lat="45.75959" lon="-1.22884">
        <ele>9.6</ele>
        <time>2014-12-30T20:50:01.814Z</time>
      </trkpt>
      <trkpt lat="45.75957" lon="-1.22715">
        <ele>9.6</ele>
        <time>2014-12-30T20:50:08.344Z</time>
      </trkpt>
      <trkpt lat="45.75933" lon="-1.2266">
        <ele>10.4</ele>
        <time>2014-12-30T20:50:14.886Z</time>
      </trkpt>
      <trkpt lat="45.75899" lon="-1.22646">
        <ele>11.4</ele>
        <time>2014-12-30T20:50:21.436Z</time>
      </trkpt>
      <trkpt lat="45.75884" lon="-1.22663">
        <ele>12</ele>
        <time>2014-12-30T20:50:27.991Z</time>
      </trkpt>
      <trkpt lat="45.75888" lon="-1.2259">
        <ele>11.3</ele>
        <time>2014-12-30T20:50:34.558Z</time>
      </trkpt>
      <trkpt lat="45.75921" lon="-1.22537">
        <ele>10.5</ele>
        <time>2014-12-30T20:50:41.137Z</time>
      </trkpt>
      <trkpt lat="45.75912" lon="-1.22502">
        <ele>11.1</ele>
        <time>2014-12-30T20:50:47.722Z</time>
      </trkpt>
      <trkpt lat="45.75851" lon="-1.22454">
        <ele>13.4</ele>
        <time>2014-12-30T20:50:54.324Z</time>
      </trkpt>
      <trkpt lat="45.75824" lon="-1.22342">
        <ele>12</ele>
        <time>2014-12-30T20:51:00.946Z</time>
      </trkpt>
      <trkpt lat="45.75786" lon="-1.22269">
        <ele>14.9</ele>
        <time>2014-12-30T20:51:07.584Z</time>
      </trkpt>
      <trkpt lat="45.75756" lon="-1.22293">
        <ele>17.5</ele>
        <time>2014-12-30T20:51:14.230Z</time>
      </trkpt>
      <trkpt lat="45.75694" lon="-1.22293">
        <ele>21.7</ele>
        <time>2014-12-30T20:51:20.891Z</time>
      </trkpt>
      <trkpt lat="45.75681" lon="-1.22116">
        <ele>28</ele>
        <time>2014-12-30T20:51:27.582Z</time>
      </trkpt>
      <trkpt lat="45.75641" lon="-1.22076">
        <ele>22.4</ele>
        <time>2014-12-30T20:51:34.285Z</time>
      </trkpt>
      <trkpt lat="45.75655" lon="-1.22024">
        <ele>25.5</ele>
        <time>2014-12-30T20:51:40.998Z</time>
      </trkpt>
      <trkpt lat="45.75689" lon="-1.22001">
        <ele>27.1</ele>
        <time>2014-12-30T20:51:47.720Z</time>
      </trkpt>
      <trkpt lat="45.75799" lon="-1.22046">
        <ele>17</ele>
        <time>2014-12-30T20:51:54.470Z</time>
      </trkpt>
      <trkpt lat="45.75833" lon="-1.22005">
        <ele>14.3</ele>
        <time>2014-12-30T20:52:01.231Z</time>
      </trkpt>
      <trkpt lat="45.75883" lon="-1.21981">
        <ele>16.1</ele>
        <time>2014-12-30T20:52:08.004Z</time>
      </trkpt>
      <trkpt lat="45.75911" lon="-1.21985">
        <ele>18.3</ele>
        <time>2014-12-30T20:52:14.784Z</time>
      </trkpt>
      <trkpt lat="45.7594" lon="-1.22058">
        <ele>19.6</ele>
        <time>2014-12-30T20:52:21.578Z</time>
      </trkpt>
      <trkpt lat="45.75988" lon="-1.21948">
        <ele>28.2</ele>
        <time>2014-12-30T20:52:28.394Z</time>
      </trkpt>
      <trkpt lat="45.76106" lon="-1.21901">
        <ele>14.5</ele>
        <time>2014-12-30T20:52:35.240Z</time>
      </trkpt>
      <trkpt lat="45.76124" lon="-1.2171">
        <ele>18.2</ele>
        <time>2014-12-30T20:52:42.119Z</time>
      </trkpt>
      <trkpt lat="45.7625" lon="-1.21728">
        <ele>16.5</ele>
        <time>2014-12-30T20:52:49.029Z</time>
      </trkpt>
      <trkpt lat="45.76342" lon="-1.21764">
        <ele>13.1</ele>
        <time>2014-12-30T20:52:55.962Z</time>
      </trkpt>
      <trkpt lat="45.76591" lon="-1.21667">
        <ele>11</ele>
        <time>2014-12-30T20:53:02.957Z</time>
      </trkpt>
      <trkpt lat="45.76689" lon="-1.21707">
        <ele>16.5</ele>
        <time>2014-12-30T20:53:09.977Z</time>
      </trkpt>
      <trkpt lat="45.76793" lon="-1.21781">
        <ele>23</ele>
        <time>2014-12-30T20:53:17.025Z</time>
      </trkpt>
      <trkpt lat="45.76872" lon="-1.21781">
        <ele>23.3</ele>
        <time>2014-12-30T20:53:24.092Z</time>
      </trkpt>
      <trkpt lat="45.76943" lon="-1.21724">
        <ele>27.7</ele>
        <time>2014-12-30T20:53:31.179Z</time>
      </trkpt>
      <trkpt lat="45.76981" lon="-1.2173">
        <ele>29</ele>
        <time>2014-12-30T20:53:38.275Z</time>
      </trkpt>
      <trkpt lat="45.77045" lon="-1.21769">
        <ele>31</ele>
        <time>2014-12-30T20:53:45.388Z</time>
      </trkpt>
      <trkpt lat="45.77184" lon="-1.21772">
        <ele>28.1</ele>
        <time>2014-12-30T20:53:52.535Z</time>
      </trkpt>
      <trkpt lat="45.77227" lon="-1.21804">
        <ele>26.3</ele>
        <time>2014-12-30T20:53:59.694Z</time>
      </trkpt>
      <trkpt lat="45.77313" lon="-1.21761">
        <ele>32.6</ele>
        <time>2014-12-30T20:54:06.875Z</time>
      </trkpt>
      <trkpt lat="45.7734" lon="-1.21845">
        <ele>29</ele>
        <time>2014-12-30T20:54:14.071Z</time>
      </trkpt>
      <trkpt lat="45.77384" lon="-1.21877">
        <ele>30.2</ele>
        <time>2014-12-30T20:54:21.279Z</time>
      </trkpt>
      <trkpt lat="45.774" lon="-1.22889">
        <ele>8</ele>
        <time>2014-12-30T20:54:28.659Z</time>
      </trkpt>
      <trkpt lat="45.77413" lon="-1.22911">
        <ele>7.9</ele>
        <time>2014-12-30T20:54:36.044Z</time>
      </trkpt>
      <trkpt lat="45.77759" lon="-1.22864">
        <ele>5</ele>
        <time>2014-12-30T20:54:43.513Z</time>
      </trkpt>
      <trkpt lat="45.77772" lon="-1.2308">
        <ele>8.5</ele>
        <time>2014-12-30T20:54:51.020Z</time>
      </trkpt>
      <trkpt lat="45.77793" lon="-1.23226">
        <ele>6.2</ele>
        <time>2014-12-30T20:54:58.553Z</time>
      </trkpt>
      <trkpt lat="45.77812" lon="-1.23241">
        <ele>5</ele>
        <time>2014-12-30T20:55:06.091Z</time>
      </trkpt>
      <trkpt lat="45.77991" lon="-1.23265">
        <ele>4</ele>
        <time>2014-12-30T20:55:13.672Z</time>
      </trkpt>
      <trkpt lat="45.78127" lon="-1.23243">
        <ele>4</ele>
        <time>2014-12-30T20:55:21.287Z</time>
      </trkpt>
      <trkpt lat="45.78376" lon="-1.23112">
        <ele>4.4</ele>
        <time>2014-12-30T20:55:28.966Z</time>
      </trkpt>
      <trkpt lat="45.78487" lon="-1.23026">
        <ele>6</ele>
        <time>2014-12-30T20:55:36.676Z</time>
      </trkpt>
      <trkpt lat="45.78604" lon="-1.22993">
        <ele>6.5</ele>
        <time>2014-12-30T20:55:44.415Z</time>
      </trkpt>
      <trkpt lat="45.7867" lon="-1.22932">
        <ele>6</ele>
        <time>2014-12-30T20:55:52.172Z</time>
      </trkpt>
      <trkpt lat="45.78708" lon="-1.22531">
        <ele>16.2</ele>
        <time>2014-12-30T20:55:59.998Z</time>
      </trkpt>
      <trkpt lat="45.78666" lon="-1.22491">
        <ele>15.7</ele>
        <time>2014-12-30T20:56:07.836Z</time>
      </trkpt>
      <trkpt lat="45.7854" lon="-1.2244">
        <ele>16.1</ele>
        <time>2014-12-30T20:56:15.706Z</time>
      </trkpt>
      <trkpt lat="45.78517" lon="-1.22459">
        <ele>16.1</ele>
        <time>2014-12-30T20:56:23.582Z</time>
      </trkpt>
      <trkpt lat="45.78506" lon="-1.2251">
        <ele>14.3</ele>
        <time>2014-12-30T20:56:31.468Z</time>
      </trkpt>
      <trkpt lat="45.78484" lon="-1.22519">
        <ele>13.2</ele>
        <time>2014-12-30T20:56:39.359Z</time>
      </trkpt>
      <trkpt lat="45.78475" lon="-1.2249">
        <ele>13</ele>
        <time>2014-12-30T20:56:47.255Z</time>
      </trkpt>
      <trkpt lat="45.78579" lon="-1.22292">
        <ele>9</ele>
        <time>2014-12-30T20:56:55.193Z</time>
      </trkpt>
      <trkpt lat="45.78603" lon="-1.22181">
        <ele>10.2</ele>
        <time>2014-12-30T20:57:03.151Z</time>
      </trkpt>
      <trkpt lat="45.78623" lon="-1.22181">
        <ele>10.1</ele>
        <time>2014-12-30T20:57:11.114Z</time>
      </trkpt>
      <trkpt lat="45.78656" lon="-1.2214">
        <ele>10</ele>
        <time>2014-12-30T20:57:19.087Z</time>
      </trkpt>
      <trkpt lat="45.78665" lon="-1.22078">
        <ele>9.7</ele>
        <time>2014-12-30T20:57:27.071Z</time>
      </trkpt>
      <trkpt lat="45.78705" lon="-1.22027">
        <ele>8.2</ele>
        <time>2014-12-30T20:57:35.068Z</time>
      </trkpt>
      <trkpt lat="45.78738" lon="-1.21939">
        <ele>7</ele>
        <time>2014-12-30T20:57:43.082Z</time>
      </trkpt>
      <trkpt lat="45.7877" lon="-1.21882">
        <ele>8</ele>
        <time>2014-12-30T20:57:51.108Z</time>
      </trkpt>
      <trkpt lat="45.78792" lon="-1.21872">
        <ele>8.3</ele>
        <time>2014-12-30T20:57:59.140Z</time>
      </trkpt>
      <trkpt lat="45.78888" lon="-1.21692">
        <ele>9</ele>
        <time>2014-12-30T20:58:07.210Z</time>
      </trkpt>
      <trkpt lat="45.7892" lon="-1.21533">
        <ele>8.5</ele>
        <time>2014-12-30T20:58:15.309Z</time>
      </trkpt>
      <trkpt lat="45.78911" lon="-1.21424">
        <ele>10</ele>
        <time>2014-12-30T20:58:23.426Z</time>
      </trkpt>
      <trkpt lat="45.78943" lon="-1.21397">
        <ele>8.9</ele>
        <time>2014-12-30T20:58:31.552Z</time>
      </trkpt>
      <trkpt lat="45.78976" lon="-1.21326">
        <ele>5.9</ele>
        <time>2014-12-30T20:58:39.693Z</time>
      </trkpt>
      <trkpt lat="45.78981" lon="-1.21248">
        <ele>6.9</ele>
        <time>2014-12-30T20:58:47.847Z</time>
      </trkpt>
      <trkpt lat="45.79015" lon="-1.21193">
        <ele>10.2</ele>
        <time>2014-12-30T20:58:56.013Z</time>
      </trkpt>
      <trkpt lat="45.79011" lon="-1.21118">
        <ele>9.6</ele>
        <time>2014-12-30T20:59:04.192Z</time>
      </trkpt>
      <trkpt lat="45.7905" lon="-1.20915">
        <ele>10</ele>
        <time>2014-12-30T20:59:12.407Z</time>
      </trkpt>
      <trkpt lat="45.79029" lon="-1.20886">
        <ele>10</ele>
        <time>2014-12-30T20:59:20.629Z</time>
      </trkpt>
      <trkpt lat="45.79025" lon="-1.20834">
        <ele>10</ele>
        <time>2014-12-30T20:59:28.860Z</time>
      </trkpt>
      <trkpt lat="45.79056" lon="-1.20814">
        <ele>10.3</ele>
        <time>2014-12-30T20:59:37.099Z</time>
      </trkpt>
      <trkpt lat="45.79056" lon="-1.2075">
        <ele>10</ele>
        <time>2014-12-30T20:59:45.349Z</time>
      </trkpt>
      <trkpt lat="45.79037" lon="-1.20703">
        <ele>11.4</ele>
        <time>2014-12-30T20:59:53.608Z</time>
      </trkpt>
      <trkpt lat="45.7901" lon="-1.20699">
        <ele>12.5</ele>
        <time>2014-12-30T21:00:01.873Z</time>
      </trkpt>
      <trkpt lat="45.79031" lon="-1.20563">
        <ele>11.2</ele>
        <time>2014-12-30T21:00:10.162Z</time>
      </trkpt>
      <trkpt lat="45.79006" lon="-1.20497">
        <ele>13.1</ele>
        <time>2014-12-30T21:00:18.464Z</time>
      </trkpt>
      <trkpt lat="45.79004" lon="-1.20434">
        <ele>11.1</ele>
        <time>2014-12-30T21:00:26.777Z</time>
      </trkpt>
      <trkpt lat="45.78975" lon="-1.20331">
        <ele>14.2</ele>
        <time>2014-12-30T21:00:35.108Z</time>
      </trkpt>
      <trkpt lat="45.78895" lon="-1.20225">
        <ele>20</ele>
        <time>2014-12-30T21:00:43.466Z</time>
      </trkpt>
      <trkpt lat="45.78888" lon="-1.20157">
        <ele>20.6</ele>
        <time>2014-12-30T21:00:51.836Z</time>
      </trkpt>
      <trkpt lat="45.7886" lon="-1.20117">
        <ele>20</ele>
        <time>2014-12-30T21:01:00.215Z</time>
      </trkpt>
      <trkpt lat="45.78878" lon="-1.20016">
        <ele>14.9</ele>
        <time>2014-12-30T21:01:08.612Z</time>
      </trkpt>
      <trkpt lat="45.78809" lon="-1.19848">
        <ele>24.2</ele>
        <time>2014-12-30T21:01:17.042Z</time>
      </trkpt>
      <trkpt lat="45.78849" lon="-1.19759">
        <ele>18.2</ele>
        <time>2014-12-30T21:01:25.490Z</time>
      </trkpt>
      <trkpt lat="45.78822" lon="-1.19653">
        <ele>17.7</ele>
        <time>2014-12-30T21:01:33.957Z</time>
      </trkpt>
      <trkpt lat="45.78837" lon="-1.19562">
        <ele>16.3</ele>
        <time>2014-12-30T21:01:42.440Z</time>
      </trkpt>
      <trkpt lat="45.78821" lon="-1.19492">
        <ele>17</ele>
        <time>2014-12-30T21:01:50.936Z</time>
      </trkpt>
      <trkpt lat="45.78827" lon="-1.194">
        <ele>15.7</ele>
        <time>2014-12-30T21:01:59.447Z</time>
      </trkpt>
      <trkpt lat="45.78851" lon="-1.19333">
        <ele>14.3</ele>
        <time>2014-12-30T21:02:07.971Z</time>
      </trkpt>
      <trkpt lat="45.78844" lon="-1.19196">
        <ele>10.5</ele>
        <time>2014-12-30T21:02:16.518Z</time>
      </trkpt>
      <trkpt lat="45.78823" lon="-1.19175">
        <ele>10.3</ele>
        <time>2014-12-30T21:02:25.072Z</time>
      </trkpt>
      <trkpt lat="45.78819" lon="-1.19137">
        <ele>9.8</ele>
        <time>2014-12-30T21:02:33.632Z</time>
      </trkpt>
      <trkpt lat="45.78772" lon="-1.19102">
        <ele>13.5</ele>
        <time>2014-12-30T21:02:42.205Z</time>
      </trkpt>
      <trkpt lat="45.78639" lon="-1.191">
        <ele>16.4</ele>
        <time>2014-12-30T21:02:50.810Z</time>
      </trkpt>
      <trkpt lat="45.78636" lon="-1.19071">
        <ele>18.1</ele>
        <time>2014-12-30T21:02:59.420Z</time>
      </trkpt>
      <trkpt lat="45.78609" lon="-1.19057">
        <ele>20.3</ele>
        <time>2014-12-30T21:03:08.037Z</time>
      </trkpt>
      <trkpt lat="45.78581" lon="-1.18983">
        <ele>24.3</ele>
        <time>2014-12-30T21:03:16.668Z</time>
      </trkpt>
      <trkpt lat="45.78582" lon="-1.18774">
        <ele>26</ele>
        <time>2014-12-30T21:03:25.335Z</time>
      </trkpt>
      <trkpt lat="45.78538" lon="-1.18654">
        <ele>26.8</ele>
        <time>2014-12-30T21:03:34.025Z</time>
      </trkpt>
      <trkpt lat="45.78489" lon="-1.18591">
        <ele>21.9</ele>
        <time>2014-12-30T21:03:42.731Z</time>
      </trkpt>
      <trkpt lat="45.78501" lon="-1.1852">
        <ele>17.8</ele>
        <time>2014-12-30T21:03:51.449Z</time>
      </trkpt>
      <trkpt lat="45.78494" lon="-1.18433">
        <ele>16.4</ele>
        <time>2014-12-30T21:04:00.182Z</time>
      </trkpt>
      <trkpt lat="45.78507" lon="-1.18403">
        <ele>15.1</ele>
        <time>2014-12-30T21:04:08.921Z</time>
      </trkpt>
      <trkpt lat="45.78546" lon="-1.18377">
        <ele>12.9</ele>
        <time>2014-12-30T21:04:17.671Z</time>
      </trkpt>
      <trkpt lat="45.78581" lon="-1.18165">
        <ele>15.9</ele>
        <time>2014-12-30T21:04:26.458Z</time>
      </trkpt>
      <trkpt lat="45.78613" lon="-1.18136">
        <ele>16</ele>
        <time>2014-12-30T21:04:35.254Z</time>
      </trkpt>
      <trkpt lat="45.7859" lon="-1.18033">
        <ele>21.5</ele>
        <time>2014-12-30T21:04:44.068Z</time>
      </trkpt>
      <trkpt lat="45.78614" lon="-1.17825">
        <ele>18.8</ele>
        <time>2014-12-30T21:04:52.918Z</time>
      </trkpt>
      <trkpt lat="45.78625" lon="-1.17794">
        <ele>19</ele>
        <time>2014-12-30T21:05:01.774Z</time>
      </trkpt>
      <trkpt lat="45.78673" lon="-1.17765">
        <ele>18.1</ele>
        <time>2014-12-30T21:05:10.642Z</time>
      </trkpt>
      <trkpt lat="45.78741" lon="-1.17618">
        <ele>17.4</ele>
        <time>2014-12-30T21:05:19.540Z</time>
      </trkpt>
      <trkpt lat="45.78735" lon="-1.1764">
        <ele>17.7</ele>
        <time>2014-12-30T21:05:28.442Z</time>
      </trkpt>
      <trkpt lat="45.78854" lon="-1.17484">
        <ele>15.2</ele>
        <time>2014-12-30T21:05:37.384Z</time>
      </trkpt>
      <trkpt lat="45.78859" lon="-1.1743">
        <ele>14.4</ele>
        <time>2014-12-30T21:05:46.335Z</time>
      </trkpt>
      <trkpt lat="45.78818" lon="-1.17332">
        <ele>18.7</ele>
        <time>2014-12-30T21:05:55.305Z</time>
      </trkpt>
      <trkpt lat="45.78834" lon="-1.17274">
        <ele>20.3</ele>
        <time>2014-12-30T21:06:04.286Z</time>
      </trkpt>
      <trkpt lat="45.7889" lon="-1.17208">
        <ele>16.9</ele>
        <time>2014-12-30T21:06:13.284Z</time>
      </trkpt>
      <trkpt lat="45.78931" lon="-1.17194">
        <ele>14.1</ele>
        <time>2014-12-30T21:06:22.293Z</time>
      </trkpt>
      <trkpt lat="45.7894" lon="-1.17158">
        <ele>15.4</ele>
        <time>2014-12-30T21:06:31.308Z</time>
      </trkpt>
      <trkpt lat="45.7896" lon="-1.1715">
        <ele>15</ele>
        <time>2014-12-30T21:06:40.328Z</time>
      </trkpt>
      <trkpt lat="45.7897" lon="-1.17081">
        <ele>15.4</ele>
        <time>2014-12-30T21:06:49.360Z</time>
      </trkpt>
      <trkpt lat="45.79041" lon="-1.16986">
        <ele>15.2</ele>
        <time>2014-12-30T21:06:58.415Z</time>
      </trkpt>
      <trkpt lat="45.79067" lon="-1.16922">
        <ele>16.5</ele>
        <time>2014-12-30T21:07:07.483Z</time>
      </trkpt>
      <trkpt lat="45.79083" lon="-1.16768">
        <ele>19</ele>
        <time>2014-12-30T21:07:16.578Z</time>
      </trkpt>
      <trkpt lat="45.79179" lon="-1.16685">
        <ele>15.6</ele>
        <time>2014-12-30T21:07:25.700Z</time>
      </trkpt>
      <trkpt lat="45.79183" lon="-1.16631">
        <ele>16.7</ele>
        <time>2014-12-30T21:07:34.831Z</time>
      </trkpt>
      <trkpt lat="45.79246" lon="-1.16514">
        <ele>18.3</ele>
        <time>2014-12-30T21:07:43.987Z</time>
      </trkpt>
      <trkpt lat="45.79256" lon="-1.16437">
        <ele>15.1</ele>
        <time>2014-12-30T21:07:53.156Z</time>
      </trkpt>
      <trkpt lat="45.79298" lon="-1.16402">
        <ele>8.7</ele>
        <time>2014-12-30T21:08:02.337Z</time>
      </trkpt>
      <trkpt lat="45.79297" lon="-1.16412">
        <ele>8.7</ele>
      </trkpt>
    </trkseg>
  </trk>
</gpx>